sensor_id;sensor_type;location;lat;lon;timestamp;pressure;altitude;pressure_sealevel;temperature;humidity
57048;BME280;42934;54.294;18.598;2023-05-21T00:02:15;101761.56;;;12.74;76.59
57048;BME280;42934;54.294;18.598;2023-05-21T00:04:45;101759.09;;;12.66;76.49
57048;BME280;42934;54.294;18.598;2023-05-21T00:07:15;101760.25;;;12.56;77.38
57048;BME280;42934;54.294;18.598;2023-05-21T00:09:45;101757.56;;;12.58;76.43
57048;BME280;42934;54.294;18.598;2023-05-21T00:12:14;101761.09;;;12.57;76.61
57048;BME280;42934;54.294;18.598;2023-05-21T00:14:43;101756.78;;;12.54;75.82
57048;BME280;42934;54.294;18.598;2023-05-21T00:17:11;101755.06;;;12.52;75.81
57048;BME280;42934;54.294;18.598;2023-05-21T00:19:40;101748.22;;;12.44;76.36
57048;BME280;42934;54.294;18.598;2023-05-21T00:22:09;101755.50;;;12.32;77.65
57048;BME280;42934;54.294;18.598;2023-05-21T00:24:40;101759.19;;;12.24;77.98
57048;BME280;42934;54.294;18.598;2023-05-21T00:27:09;101753.13;;;12.21;78.43
57048;BME280;42934;54.294;18.598;2023-05-21T00:29:38;101747.88;;;12.21;78.35
57048;BME280;42934;54.294;18.598;2023-05-21T00:32:09;101755.00;;;12.16;77.79
57048;BME280;42934;54.294;18.598;2023-05-21T00:34:38;101746.31;;;12.12;78.38
57048;BME280;42934;54.294;18.598;2023-05-21T00:37:07;101752.50;;;12.08;78.16
57048;BME280;42934;54.294;18.598;2023-05-21T00:39:37;101753.41;;;12.07;77.72
57048;BME280;42934;54.294;18.598;2023-05-21T00:42:07;101752.50;;;12.10;77.49
57048;BME280;42934;54.294;18.598;2023-05-21T00:44:36;101756.00;;;12.09;77.44
57048;BME280;42934;54.294;18.598;2023-05-21T00:47:05;101747.25;;;12.08;78.28
57048;BME280;42934;54.294;18.598;2023-05-21T00:49:34;101756.91;;;12.09;77.83
57048;BME280;42934;54.294;18.598;2023-05-21T00:52:03;101756.91;;;12.09;77.42
57048;BME280;42934;54.294;18.598;2023-05-21T00:54:34;101758.69;;;12.07;77.69
57048;BME280;42934;54.294;18.598;2023-05-21T00:57:02;101749.09;;;12.04;77.73
57048;BME280;42934;54.294;18.598;2023-05-21T00:59:33;101752.56;;;12.05;76.86
57048;BME280;42934;54.294;18.598;2023-05-21T01:02:02;101756.13;;;12.02;78.02
57048;BME280;42934;54.294;18.598;2023-05-21T01:04:33;101757.88;;;12.03;77.13
57048;BME280;42934;54.294;18.598;2023-05-21T01:07:02;101757.88;;;12.03;76.92
57048;BME280;42934;54.294;18.598;2023-05-21T01:09:32;101757.91;;;12.02;76.53
57048;BME280;42934;54.294;18.598;2023-05-21T01:12:01;101754.44;;;12.00;76.86
57048;BME280;42934;54.294;18.598;2023-05-21T01:14:30;101759.75;;;11.98;76.86
57048;BME280;42934;54.294;18.598;2023-05-21T01:17:03;101752.78;;;11.96;76.93
57048;BME280;42934;54.294;18.598;2023-05-21T01:19:33;101757.25;;;11.92;77.46
57048;BME280;42934;54.294;18.598;2023-05-21T01:22:03;101752.03;;;11.89;76.87
57048;BME280;42934;54.294;18.598;2023-05-21T01:24:34;101747.66;;;11.88;77.03
57048;BME280;42934;54.294;18.598;2023-05-21T01:27:03;101749.41;;;11.88;77.49
57048;BME280;42934;54.294;18.598;2023-05-21T01:29:34;101752.91;;;11.90;76.55
57048;BME280;42934;54.294;18.598;2023-05-21T01:32:03;101746.84;;;11.86;77.72
57048;BME280;42934;54.294;18.598;2023-05-21T01:34:38;101750.34;;;11.85;77.65
57048;BME280;42934;54.294;18.598;2023-05-21T01:37:10;101744.25;;;11.83;78.03
57048;BME280;42934;54.294;18.598;2023-05-21T01:39:43;101744.31;;;11.80;78.97
57048;BME280;42934;54.294;18.598;2023-05-21T01:42:12;101739.03;;;11.80;78.79
57048;BME280;42934;54.294;18.598;2023-05-21T01:44:42;101743.44;;;11.79;78.74
57048;BME280;42934;54.294;18.598;2023-05-21T01:47:12;101752.22;;;11.78;77.92
57048;BME280;42934;54.294;18.598;2023-05-21T01:49:42;101751.41;;;11.75;77.58
57048;BME280;42934;54.294;18.598;2023-05-21T01:52:11;101746.22;;;11.70;77.53
57048;BME280;42934;54.294;18.598;2023-05-21T01:54:40;101748.91;;;11.67;77.32
57048;BME280;42934;54.294;18.598;2023-05-21T01:57:10;101744.63;;;11.63;78.55
57048;BME280;42934;54.294;18.598;2023-05-21T01:59:40;101743.72;;;11.64;77.87
57048;BME280;42934;54.294;18.598;2023-05-21T02:02:08;101743.72;;;11.66;78.10
57048;BME280;42934;54.294;18.598;2023-05-21T02:04:38;101742.84;;;11.65;79.34
57048;BME280;42934;54.294;18.598;2023-05-21T02:07:07;101740.16;;;11.68;78.90
57048;BME280;42934;54.294;18.598;2023-05-21T02:09:37;101746.22;;;11.72;78.12
57048;BME280;42934;54.294;18.598;2023-05-21T02:12:06;101742.66;;;11.74;78.91
57048;BME280;42934;54.294;18.598;2023-05-21T02:14:37;101752.22;;;11.78;78.01
57048;BME280;42934;54.294;18.598;2023-05-21T02:17:06;101751.28;;;11.81;77.82
57048;BME280;42934;54.294;18.598;2023-05-21T02:19:35;101747.78;;;11.80;78.64
57048;BME280;42934;54.294;18.598;2023-05-21T02:22:04;101748.63;;;11.82;77.38
57048;BME280;42934;54.294;18.598;2023-05-21T02:24:33;101748.66;;;11.81;77.49
57048;BME280;42934;54.294;18.598;2023-05-21T02:27:02;101754.81;;;11.80;78.75
57048;BME280;42934;54.294;18.598;2023-05-21T02:29:33;101753.97;;;11.79;78.10
57048;BME280;42934;54.294;18.598;2023-05-21T02:32:03;101754.84;;;11.78;77.46
57048;BME280;42934;54.294;18.598;2023-05-21T02:34:32;101752.28;;;11.75;78.02
57048;BME280;42934;54.294;18.598;2023-05-21T02:37:03;101750.56;;;11.74;77.81
57048;BME280;42934;54.294;18.598;2023-05-21T02:39:33;101748.84;;;11.72;78.18
57048;BME280;42934;54.294;18.598;2023-05-21T02:42:02;101756.81;;;11.67;79.40
57048;BME280;42934;54.294;18.598;2023-05-21T02:44:31;101753.31;;;11.67;78.29
57048;BME280;42934;54.294;18.598;2023-05-21T02:47:00;101756.78;;;11.69;77.77
57048;BME280;42934;54.294;18.598;2023-05-21T02:49:30;101746.28;;;11.67;78.65
57048;BME280;42934;54.294;18.598;2023-05-21T02:51:59;101746.34;;;11.66;78.56
57048;BME280;42934;54.294;18.598;2023-05-21T02:54:28;101742.00;;;11.62;78.99
57048;BME280;42934;54.294;18.598;2023-05-21T02:56:56;101742.91;;;11.60;78.51
57048;BME280;42934;54.294;18.598;2023-05-21T02:59:26;101744.81;;;11.54;80.26
57048;BME280;42934;54.294;18.598;2023-05-21T03:01:55;101743.13;;;11.50;79.59
57048;BME280;42934;54.294;18.598;2023-05-21T03:04:24;101747.56;;;11.48;79.51
57048;BME280;42934;54.294;18.598;2023-05-21T03:06:56;101744.09;;;11.46;78.95
57048;BME280;42934;54.294;18.598;2023-05-21T03:09:28;101745.84;;;11.45;79.19
57048;BME280;42934;54.294;18.598;2023-05-21T03:11:58;101745.00;;;11.45;80.46
57048;BME280;42934;54.294;18.598;2023-05-21T03:14:27;101742.34;;;11.45;80.61
57048;BME280;42934;54.294;18.598;2023-05-21T03:16:56;101739.69;;;11.46;80.01
57048;BME280;42934;54.294;18.598;2023-05-21T03:19:25;101738.75;;;11.49;80.58
57048;BME280;42934;54.294;18.598;2023-05-21T03:21:58;101742.25;;;11.49;80.47
57048;BME280;42934;54.294;18.598;2023-05-21T03:24:27;101744.03;;;11.49;79.35
57048;BME280;42934;54.294;18.598;2023-05-21T03:26:56;101737.97;;;11.45;80.70
57048;BME280;42934;54.294;18.598;2023-05-21T03:29:25;101734.41;;;11.46;79.57
57048;BME280;42934;54.294;18.598;2023-05-21T03:31:55;101742.34;;;11.45;80.10
57048;BME280;42934;54.294;18.598;2023-05-21T03:34:24;101740.59;;;11.45;81.12
57048;BME280;42934;54.294;18.598;2023-05-21T03:36:53;101740.59;;;11.45;81.38
57048;BME280;42934;54.294;18.598;2023-05-21T03:39:23;101737.91;;;11.48;80.25
57048;BME280;42934;54.294;18.598;2023-05-21T03:41:54;101744.03;;;11.49;81.49
57048;BME280;42934;54.294;18.598;2023-05-21T03:44:35;101739.59;;;11.51;81.13
57048;BME280;42934;54.294;18.598;2023-05-21T03:47:24;101727.31;;;11.51;82.43
57048;BME280;42934;54.294;18.598;2023-05-21T03:49:54;101729.09;;;11.51;80.64
57048;BME280;42934;54.294;18.598;2023-05-21T03:52:22;101729.09;;;11.51;82.14
57048;BME280;42934;54.294;18.598;2023-05-21T03:54:53;101720.28;;;11.53;81.94
57048;BME280;42934;54.294;18.598;2023-05-21T03:57:22;101727.25;;;11.54;81.73
57048;BME280;42934;54.294;18.598;2023-05-21T03:59:51;101721.03;;;11.58;82.60
57048;BME280;42934;54.294;18.598;2023-05-21T04:02:20;101724.50;;;11.62;83.90
57048;BME280;42934;54.294;18.598;2023-05-21T04:04:49;101718.25;;;11.68;82.43
57048;BME280;42934;54.294;18.598;2023-05-21T04:07:20;101720.69;;;11.75;82.52
57048;BME280;42934;54.294;18.598;2023-05-21T04:09:49;101722.34;;;11.81;81.69
57048;BME280;42934;54.294;18.598;2023-05-21T04:12:19;101713.50;;;11.85;84.51
57048;BME280;42934;54.294;18.598;2023-05-21T04:14:49;101722.97;;;11.94;82.40
57048;BME280;42934;54.294;18.598;2023-05-21T04:17:18;101719.34;;;12.01;82.27
57048;BME280;42934;54.294;18.598;2023-05-21T04:19:48;101721.78;;;12.09;82.17
57048;BME280;42934;54.294;18.598;2023-05-21T04:22:16;101719.97;;;12.12;82.00
57048;BME280;42934;54.294;18.598;2023-05-21T04:24:45;101719.84;;;12.18;82.70
57048;BME280;42934;54.294;18.598;2023-05-21T04:27:19;101729.38;;;12.24;83.94
57048;BME280;42934;54.294;18.598;2023-05-21T04:29:51;101723.97;;;12.30;83.85
57048;BME280;42934;54.294;18.598;2023-05-21T04:32:23;101717.63;;;12.37;82.99
57048;BME280;42934;54.294;18.598;2023-05-21T04:34:52;101727.09;;;12.46;84.98
57048;BME280;42934;54.294;18.598;2023-05-21T04:37:20;101719.03;;;12.52;84.79
57048;BME280;42934;54.294;18.598;2023-05-21T04:39:51;101721.50;;;12.60;83.49
57048;BME280;42934;54.294;18.598;2023-05-21T04:42:21;101718.66;;;12.67;82.95
57048;BME280;42934;54.294;18.598;2023-05-21T04:44:50;101713.31;;;12.72;83.56
57048;BME280;42934;54.294;18.598;2023-05-21T04:47:22;101718.41;;;12.80;84.23
57048;BME280;42934;54.294;18.598;2023-05-21T04:49:51;101720.03;;;12.85;83.61
57048;BME280;42934;54.294;18.598;2023-05-21T04:52:20;101714.63;;;12.90;83.40
57048;BME280;42934;54.294;18.598;2023-05-21T04:54:51;101712.75;;;12.93;83.12
57048;BME280;42934;54.294;18.598;2023-05-21T04:57:21;101708.25;;;12.99;82.74
57048;BME280;42934;54.294;18.598;2023-05-21T04:59:51;101712.50;;;13.03;83.01
57048;BME280;42934;54.294;18.598;2023-05-21T05:02:20;101708.84;;;13.08;82.79
57048;BME280;42934;54.294;18.598;2023-05-21T05:04:49;101708.75;;;13.13;82.85
57048;BME280;42934;54.294;18.598;2023-05-21T05:07:17;101710.38;;;13.17;82.29
57048;BME280;42934;54.294;18.598;2023-05-21T05:09:47;101697.09;;;13.22;81.26
57048;BME280;42934;54.294;18.598;2023-05-21T05:12:16;101707.56;;;13.25;81.19
57048;BME280;42934;54.294;18.598;2023-05-21T05:14:46;101703.09;;;13.28;81.40
57048;BME280;42934;54.294;18.598;2023-05-21T05:17:15;101700.38;;;13.31;80.39
57048;BME280;42934;54.294;18.598;2023-05-21T05:19:45;101708.16;;;13.36;80.05
57048;BME280;42934;54.294;18.598;2023-05-21T05:22:14;101707.16;;;13.40;79.76
57048;BME280;42934;54.294;18.598;2023-05-21T05:24:43;101706.13;;;13.46;79.58
57048;BME280;42934;54.294;18.598;2023-05-21T05:27:11;101718.28;;;13.51;78.93
57048;BME280;42934;54.294;18.598;2023-05-21T05:29:40;101712.97;;;13.53;78.85
57048;BME280;42934;54.294;18.598;2023-05-21T05:32:10;101718.13;;;13.57;78.87
57048;BME280;42934;54.294;18.598;2023-05-21T05:34:40;101718.00;;;13.62;78.49
57048;BME280;42934;54.294;18.598;2023-05-21T05:37:09;101714.38;;;13.66;78.72
57048;BME280;42934;54.294;18.598;2023-05-21T05:39:39;101711.63;;;13.69;78.69
57048;BME280;42934;54.294;18.598;2023-05-21T05:42:09;101715.81;;;13.76;78.91
57048;BME280;42934;54.294;18.598;2023-05-21T05:44:38;101706.06;;;13.80;78.43
57048;BME280;42934;54.294;18.598;2023-05-21T05:47:07;101710.28;;;13.85;78.86
57048;BME280;42934;54.294;18.598;2023-05-21T05:49:40;101706.63;;;13.90;78.50
57048;BME280;42934;54.294;18.598;2023-05-21T05:52:09;101710.91;;;13.94;78.61
57048;BME280;42934;54.294;18.598;2023-05-21T05:54:38;101710.81;;;13.97;78.63
57048;BME280;42934;54.294;18.598;2023-05-21T05:57:08;101707.09;;;14.04;78.97
57048;BME280;42934;54.294;18.598;2023-05-21T05:59:38;101707.88;;;14.07;79.50
57048;BME280;42934;54.294;18.598;2023-05-21T06:02:08;101715.56;;;14.15;79.60
57048;BME280;42934;54.294;18.598;2023-05-21T06:04:37;101715.41;;;14.20;78.95
57048;BME280;42934;54.294;18.598;2023-05-21T06:07:07;101717.84;;;14.26;78.37
57048;BME280;42934;54.294;18.598;2023-05-21T06:09:36;101713.41;;;14.28;78.87
57048;BME280;42934;54.294;18.598;2023-05-21T06:12:06;101710.53;;;14.36;78.67
57048;BME280;42934;54.294;18.598;2023-05-21T06:14:38;101705.84;;;14.44;78.05
57048;BME280;42934;54.294;18.598;2023-05-21T06:17:10;101704.78;;;14.49;78.20
57048;BME280;42934;54.294;18.598;2023-05-21T06:19:39;101709.88;;;14.57;77.66
57048;BME280;42934;54.294;18.598;2023-05-21T06:22:09;101713.34;;;14.59;77.84
57048;BME280;42934;54.294;18.598;2023-05-21T06:24:38;101705.22;;;14.65;77.67
57048;BME280;42934;54.294;18.598;2023-05-21T06:27:09;101701.44;;;14.72;77.53
57048;BME280;42934;54.294;18.598;2023-05-21T06:29:38;101711.00;;;14.76;77.74
57048;BME280;42934;54.294;18.598;2023-05-21T06:32:08;101709.81;;;14.85;77.68
57048;BME280;42934;54.294;18.598;2023-05-21T06:34:37;101706.00;;;14.94;77.52
57048;BME280;42934;54.294;18.598;2023-05-21T06:37:05;101703.97;;;15.02;77.65
57048;BME280;42934;54.294;18.598;2023-05-21T06:39:36;101699.31;;;15.09;76.92
57048;BME280;42934;54.294;18.598;2023-05-21T06:42:05;101704.31;;;15.18;76.82
57048;BME280;42934;54.294;18.598;2023-05-21T06:44:47;101697.94;;;15.24;76.68
57048;BME280;42934;54.294;18.598;2023-05-21T06:47:22;101698.50;;;15.32;76.35
57048;BME280;42934;54.294;18.598;2023-05-21T06:49:51;101702.72;;;15.37;76.14
57048;BME280;42934;54.294;18.598;2023-05-21T06:52:21;101701.63;;;15.43;75.95
57048;BME280;42934;54.294;18.598;2023-05-21T06:54:51;101704.06;;;15.49;75.67
57048;BME280;42934;54.294;18.598;2023-05-21T06:57:21;101702.94;;;15.56;75.91
57048;BME280;42934;54.294;18.598;2023-05-21T06:59:50;101700.97;;;15.61;75.56
57048;BME280;42934;54.294;18.598;2023-05-21T07:02:18;101707.81;;;15.69;75.34
57048;BME280;42934;54.294;18.598;2023-05-21T07:04:48;101713.72;;;15.75;75.24
57048;BME280;42934;54.294;18.598;2023-05-21T07:07:16;101717.81;;;15.84;75.12
57048;BME280;42934;54.294;18.598;2023-05-21T07:09:45;101716.66;;;15.91;74.97
57048;BME280;42934;54.294;18.598;2023-05-21T07:12:16;101704.09;;;15.96;74.71
57048;BME280;42934;54.294;18.598;2023-05-21T07:14:45;101708.13;;;16.06;74.60
57048;BME280;42934;54.294;18.598;2023-05-21T07:17:14;101704.16;;;16.18;74.49
57048;BME280;42934;54.294;18.598;2023-05-21T07:19:43;101706.56;;;16.24;74.06
57048;BME280;42934;54.294;18.598;2023-05-21T07:22:11;101705.38;;;16.31;74.12
57048;BME280;42934;54.294;18.598;2023-05-21T07:24:42;101700.69;;;16.38;73.86
57048;BME280;42934;54.294;18.598;2023-05-21T07:27:11;101708.34;;;16.46;73.12
57048;BME280;42934;54.294;18.598;2023-05-21T07:29:55;101704.50;;;16.53;72.63
57048;BME280;42934;54.294;18.598;2023-05-21T07:32:24;101691.81;;;16.61;73.48
57048;BME280;42934;54.294;18.598;2023-05-21T07:34:55;101694.03;;;16.72;73.40
57048;BME280;42934;54.294;18.598;2023-05-21T07:37:26;101694.66;;;16.78;72.74
57048;BME280;42934;54.294;18.598;2023-05-21T07:39:55;101688.09;;;16.87;72.30
57048;BME280;42934;54.294;18.598;2023-05-21T07:42:24;101694.53;;;17.02;72.24
57048;BME280;42934;54.294;18.598;2023-05-21T07:44:56;101684.38;;;17.12;71.56
57048;BME280;42934;54.294;18.598;2023-05-21T07:47:26;101692.88;;;17.20;71.74
57048;BME280;42934;54.294;18.598;2023-05-21T07:49:55;101691.75;;;17.25;70.63
57048;BME280;42934;54.294;18.598;2023-05-21T07:52:25;101690.44;;;17.36;70.36
57048;BME280;42934;54.294;18.598;2023-05-21T07:54:54;101689.06;;;17.46;70.32
57048;BME280;42934;54.294;18.598;2023-05-21T07:57:24;101695.91;;;17.52;70.07
57048;BME280;42934;54.294;18.598;2023-05-21T07:59:59;101696.84;;;17.51;68.34
57048;BME280;42934;54.294;18.598;2023-05-21T08:02:31;101702.66;;;17.59;70.16
57048;BME280;42934;54.294;18.598;2023-05-21T08:05:00;101697.22;;;17.62;70.17
57048;BME280;42934;54.294;18.598;2023-05-21T08:07:29;101701.47;;;17.66;70.06
57048;BME280;42934;54.294;18.598;2023-05-21T08:09:59;101699.47;;;17.71;70.03
57048;BME280;42934;54.294;18.598;2023-05-21T08:12:29;101693.06;;;17.75;70.21
57048;BME280;42934;54.294;18.598;2023-05-21T08:15:00;101701.59;;;17.83;70.06
57048;BME280;42934;54.294;18.598;2023-05-21T08:17:30;101701.28;;;17.89;69.41
57048;BME280;42934;54.294;18.598;2023-05-21T08:20:00;101701.72;;;17.99;69.65
57048;BME280;42934;54.294;18.598;2023-05-21T08:22:31;101694.31;;;18.06;69.42
57048;BME280;42934;54.294;18.598;2023-05-21T08:25:00;101692.94;;;18.16;68.91
57048;BME280;42934;54.294;18.598;2023-05-21T08:27:30;101693.38;;;18.26;68.83
57048;BME280;42934;54.294;18.598;2023-05-21T08:30:00;101691.41;;;18.29;68.54
57048;BME280;42934;54.294;18.598;2023-05-21T08:32:29;101679.16;;;18.27;68.19
57048;BME280;42934;54.294;18.598;2023-05-21T08:34:58;101690.09;;;18.38;68.29
57048;BME280;42934;54.294;18.598;2023-05-21T08:37:43;101692.63;;;18.41;67.40
57048;BME280;42934;54.294;18.598;2023-05-21T08:40:41;101689.44;;;18.52;67.13
57048;BME280;42934;54.294;18.598;2023-05-21T08:43:10;101683.66;;;18.61;67.53
57048;BME280;42934;54.294;18.598;2023-05-21T08:45:46;101679.63;;;18.71;66.23
57048;BME280;42934;54.294;18.598;2023-05-21T08:48:17;101676.44;;;18.82;66.14
57048;BME280;42934;54.294;18.598;2023-05-21T08:50:48;101675.94;;;18.91;65.83
57048;BME280;42934;54.294;18.598;2023-05-21T08:53:22;101681.69;;;19.01;64.92
57048;BME280;42934;54.294;18.598;2023-05-21T08:55:56;101671.09;;;19.17;64.53
57048;BME280;42934;54.294;18.598;2023-05-21T08:58:41;101679.91;;;19.35;64.08
57048;BME280;42934;54.294;18.598;2023-05-21T09:01:17;101669.94;;;19.38;63.25
57048;BME280;42934;54.294;18.598;2023-05-21T09:03:51;101673.16;;;19.45;63.29
57048;BME280;42934;54.294;18.598;2023-05-21T09:06:28;101683.38;;;19.52;63.64
57048;BME280;42934;54.294;18.598;2023-05-21T09:09:01;101680.50;;;19.57;62.93
57048;BME280;42934;54.294;18.598;2023-05-21T09:11:40;101679.16;;;19.66;63.78
57048;BME280;42934;54.294;18.598;2023-05-21T09:14:10;101684.31;;;19.69;63.22
57048;BME280;42934;54.294;18.598;2023-05-21T09:16:56;101682.44;;;19.71;62.51
57048;BME280;42934;54.294;18.598;2023-05-21T09:19:26;101680.31;;;19.78;62.77
57048;BME280;42934;54.294;18.598;2023-05-21T09:22:00;101674.69;;;19.82;61.96
57048;BME280;42934;54.294;18.598;2023-05-21T09:24:29;101676.00;;;19.91;62.28
57048;BME280;42934;54.294;18.598;2023-05-21T09:27:05;101673.25;;;19.92;62.22
57048;BME280;42934;54.294;18.598;2023-05-21T09:29:33;101671.09;;;19.99;61.97
57048;BME280;42934;54.294;18.598;2023-05-21T09:32:08;101680.56;;;20.05;61.52
57048;BME280;42934;54.294;18.598;2023-05-21T09:34:40;101680.38;;;20.08;61.72
57048;BME280;42934;54.294;18.598;2023-05-21T09:37:09;101674.53;;;20.17;61.33
57048;BME280;42934;54.294;18.598;2023-05-21T09:39:53;101677.47;;;20.28;61.13
57048;BME280;42934;54.294;18.598;2023-05-21T09:42:22;101668.19;;;20.35;61.01
57048;BME280;42934;54.294;18.598;2023-05-21T09:44:51;101664.78;;;20.48;61.04
57048;BME280;42934;54.294;18.598;2023-05-21T09:47:21;101671.34;;;20.58;61.17
57048;BME280;42934;54.294;18.598;2023-05-21T09:49:51;101666.41;;;20.66;59.01
57048;BME280;42934;54.294;18.598;2023-05-21T09:52:24;101659.25;;;20.67;59.39
57048;BME280;42934;54.294;18.598;2023-05-21T09:54:54;101666.59;;;20.63;55.88
57048;BME280;42934;54.294;18.598;2023-05-21T09:57:24;101668.47;;;20.61;56.10
57048;BME280;42934;54.294;18.598;2023-05-21T09:59:53;101658.41;;;20.66;58.64
57048;BME280;42934;54.294;18.598;2023-05-21T10:02:24;101657.44;;;20.67;59.03
57048;BME280;42934;54.294;18.598;2023-05-21T10:04:54;101662.88;;;20.66;57.04
57048;BME280;42934;54.294;18.598;2023-05-21T10:07:23;101655.38;;;20.72;58.67
57048;BME280;42934;54.294;18.598;2023-05-21T10:09:54;101660.81;;;20.85;59.90
57048;BME280;42934;54.294;18.598;2023-05-21T10:12:23;101656.56;;;20.97;59.45
57048;BME280;42934;54.294;18.598;2023-05-21T10:14:53;101659.44;;;21.08;59.74
57048;BME280;42934;54.294;18.598;2023-05-21T10:17:28;101651.56;;;21.21;58.28
57048;BME280;42934;54.294;18.598;2023-05-21T10:19:58;101660.25;;;21.24;58.88
57048;BME280;42934;54.294;18.598;2023-05-21T10:22:27;101657.75;;;21.21;57.61
57048;BME280;42934;54.294;18.598;2023-05-21T10:24:56;101653.47;;;21.19;58.95
57048;BME280;42934;54.294;18.598;2023-05-21T10:27:27;101656.72;;;21.24;58.50
57048;BME280;42934;54.294;18.598;2023-05-21T10:29:59;101656.03;;;21.35;57.75
57048;BME280;42934;54.294;18.598;2023-05-21T10:32:29;101655.59;;;21.42;57.52
57048;BME280;42934;54.294;18.598;2023-05-21T10:34:59;101659.31;;;21.40;58.23
57048;BME280;42934;54.294;18.598;2023-05-21T10:37:29;101651.31;;;21.40;57.51
57048;BME280;42934;54.294;18.598;2023-05-21T10:39:57;101654.94;;;21.39;57.25
57048;BME280;42934;54.294;18.598;2023-05-21T10:42:41;101651.56;;;21.49;58.75
57048;BME280;42934;54.294;18.598;2023-05-21T10:45:15;101651.88;;;21.59;57.57
57048;BME280;42934;54.294;18.598;2023-05-21T10:53:31;101642.94;;;21.87;57.93
57048;BME280;42934;54.294;18.598;2023-05-21T10:56:09;101640.72;;;21.94;57.83
57048;BME280;42934;54.294;18.598;2023-05-21T10:58:49;101635.19;;;21.97;57.41
57048;BME280;42934;54.294;18.598;2023-05-21T11:01:20;101631.38;;;22.01;57.81
57048;BME280;42934;54.294;18.598;2023-05-21T11:03:50;101631.16;;;22.04;57.63
57048;BME280;42934;54.294;18.598;2023-05-21T11:06:22;101630.97;;;22.07;56.49
57048;BME280;42934;54.294;18.598;2023-05-21T11:08:53;101637.16;;;22.08;54.67
57048;BME280;42934;54.294;18.598;2023-05-21T11:11:41;101635.13;;;22.11;56.18
57048;BME280;42934;54.294;18.598;2023-05-21T11:14:29;101634.09;;;22.14;56.37
57048;BME280;42934;54.294;18.598;2023-05-21T11:17:02;101634.09;;;22.14;54.24
57048;BME280;42934;54.294;18.598;2023-05-21T11:19:35;101635.34;;;22.08;54.73
57048;BME280;42934;54.294;18.598;2023-05-21T11:22:08;101644.63;;;22.17;54.86
57048;BME280;42934;54.294;18.598;2023-05-21T11:24:39;101637.34;;;22.19;54.50
57048;BME280;42934;54.294;18.598;2023-05-21T11:27:08;101637.34;;;22.19;53.75
57048;BME280;42934;54.294;18.598;2023-05-21T11:29:40;101637.53;;;22.16;54.54
57048;BME280;42934;54.294;18.598;2023-05-21T11:32:09;101639.19;;;22.18;50.53
57048;BME280;42934;54.294;18.598;2023-05-21T11:34:39;101618.78;;;22.16;54.16
57048;BME280;42934;54.294;18.598;2023-05-21T11:37:27;101624.34;;;22.27;53.92
57048;BME280;42934;54.294;18.598;2023-05-21T11:42:44;101620.19;;;22.36;53.55
57048;BME280;42934;54.294;18.598;2023-05-21T11:45:17;101625.22;;;22.40;52.50
57048;BME280;42934;54.294;18.598;2023-05-21T11:47:46;101622.44;;;22.42;52.55
57048;BME280;42934;54.294;18.598;2023-05-21T11:50:16;101630.06;;;22.48;51.49
57048;BME280;42934;54.294;18.598;2023-05-21T11:52:45;101626.53;;;22.48;50.63
57048;BME280;42934;54.294;18.598;2023-05-21T11:55:15;101629.41;;;22.44;52.07
57048;BME280;42934;54.294;18.598;2023-05-21T11:57:51;101630.06;;;22.48;52.57
57048;BME280;42934;54.294;18.598;2023-05-21T12:00:20;101619.25;;;22.50;50.02
57048;BME280;42934;54.294;18.598;2023-05-21T12:02:49;101635.09;;;22.53;51.10
57048;BME280;42934;54.294;18.598;2023-05-21T12:05:19;101628.78;;;22.54;48.84
57048;BME280;42934;54.294;18.598;2023-05-21T12:07:48;101623.66;;;22.51;46.03
57048;BME280;42934;54.294;18.598;2023-05-21T12:10:22;101626.22;;;22.52;48.18
57048;BME280;42934;54.294;18.598;2023-05-21T12:12:51;101618.19;;;22.52;48.84
57048;BME280;42934;54.294;18.598;2023-05-21T12:15:24;101627.19;;;22.51;45.87
57048;BME280;42934;54.294;18.598;2023-05-21T12:17:54;101622.69;;;22.52;47.58
57048;BME280;42934;54.294;18.598;2023-05-21T12:20:27;101615.50;;;22.52;48.23
57048;BME280;42934;54.294;18.598;2023-05-21T12:22:56;101632.88;;;22.59;47.81
57048;BME280;42934;54.294;18.598;2023-05-21T12:25:27;101623.88;;;22.60;47.07
57048;BME280;42934;54.294;18.598;2023-05-21T12:27:56;101635.22;;;22.64;47.32
57048;BME280;42934;54.294;18.598;2023-05-21T12:30:28;101628.25;;;22.61;46.27
57048;BME280;42934;54.294;18.598;2023-05-21T12:32:57;101629.03;;;22.63;48.37
57048;BME280;42934;54.294;18.598;2023-05-21T12:35:29;101628.81;;;22.66;47.59
57048;BME280;42934;54.294;18.598;2023-05-21T12:37:59;101629.56;;;22.68;47.56
57048;BME280;42934;54.294;18.598;2023-05-21T12:40:36;101636.53;;;22.71;47.09
57048;BME280;42934;54.294;18.598;2023-05-21T12:43:06;101632.13;;;22.70;47.07
57048;BME280;42934;54.294;18.598;2023-05-21T12:45:35;101637.41;;;22.72;47.39
57048;BME280;42934;54.294;18.598;2023-05-21T12:48:06;101632.69;;;22.75;46.91
57048;BME280;42934;54.294;18.598;2023-05-21T12:50:37;101626.34;;;22.76;46.56
57048;BME280;42934;54.294;18.598;2023-05-21T12:53:07;101623.78;;;22.75;45.69
57048;BME280;42934;54.294;18.598;2023-05-21T12:55:38;101622.81;;;22.76;46.30
57048;BME280;42934;54.294;18.598;2023-05-21T12:58:11;101614.91;;;22.74;46.64
57048;BME280;42934;54.294;18.598;2023-05-21T13:00:40;101613.94;;;22.75;46.13
57048;BME280;42934;54.294;18.598;2023-05-21T13:03:09;101613.09;;;22.75;46.16
57048;BME280;42934;54.294;18.598;2023-05-21T13:05:39;101613.63;;;22.80;46.28
57048;BME280;42934;54.294;18.598;2023-05-21T13:08:08;101615.97;;;22.84;46.92